createdAt,value
2022-10-17T00:00:35.377Z,4.88
2022-10-17T00:03:03.707Z,4.57
2022-10-17T00:05:32.031Z,4.50
2022-10-17T00:08:00.315Z,4.13
2022-10-17T00:10:29.939Z,4.03
2022-10-17T00:12:58.415Z,4.13
2022-10-17T00:15:26.774Z,3.95
2022-10-17T00:17:55.329Z,3.78
2022-10-17T00:20:23.709Z,3.78
2022-10-17T00:22:52.472Z,4.30
2022-10-17T00:25:20.872Z,3.97
2022-10-17T00:27:50.496Z,3.90
2022-10-17T00:30:18.824Z,4.15
2022-10-17T00:32:47.244Z,4.28
2022-10-17T00:35:15.541Z,4.35
2022-10-17T00:37:43.855Z,4.43
2022-10-17T00:40:12.842Z,4.20
2022-10-17T00:42:41.147Z,4.57
2022-10-17T00:45:15.926Z,4.75
2022-10-17T00:47:45.699Z,4.40
2022-10-17T00:50:15.052Z,4.00
2022-10-17T00:52:43.463Z,4.40
2022-10-17T00:55:13.849Z,4.07
2022-10-17T00:57:43.504Z,4.38
2022-10-17T01:00:16.035Z,4.57
2022-10-17T01:02:44.738Z,4.80
2022-10-17T01:05:13.228Z,4.78
2022-10-17T01:07:42.099Z,4.95
2022-10-17T01:10:11.059Z,4.68
2022-10-17T01:12:47.229Z,4.85
2022-10-17T01:15:20.477Z,4.00
2022-10-17T01:17:55.329Z,4.60
2022-10-17T01:20:31.445Z,4.30
2022-10-17T01:23:07.481Z,4.50
2022-10-17T01:25:40.941Z,4.68
2022-10-17T01:28:16.461Z,4.25
2022-10-17T01:30:50.234Z,4.00
2022-10-17T01:33:23.796Z,4.10
2022-10-17T01:35:54.261Z,3.97
2022-10-17T01:38:25.078Z,4.05
2022-10-17T01:40:55.851Z,3.50
2022-10-17T01:43:26.241Z,3.88
2022-10-17T01:46:00.591Z,4.03
2022-10-17T01:48:31.991Z,3.78
2022-10-17T01:51:01.651Z,4.07
2022-10-17T01:53:31.657Z,3.75
2022-10-17T01:56:02.041Z,4.00
2022-10-17T01:58:32.187Z,3.50
2022-10-17T02:01:03.414Z,4.07
2022-10-17T02:03:34.426Z,4.22
2022-10-17T02:06:02.828Z,3.95
2022-10-17T02:08:41.466Z,3.80
2022-10-17T02:11:13.527Z,3.97
2022-10-17T02:13:47.344Z,4.00
2022-10-17T02:16:24.350Z,3.70
2022-10-17T02:19:03.949Z,3.90
2022-10-17T02:21:36.215Z,3.45
2022-10-17T02:24:08.935Z,3.40
2022-10-17T02:26:38.703Z,3.45
2022-10-17T02:29:10.934Z,4.45
2022-10-17T02:31:43.524Z,3.42
2022-10-17T02:34:14.811Z,3.47
2022-10-17T02:36:47.623Z,3.63
2022-10-17T02:39:17.368Z,3.88
2022-10-17T02:41:46.224Z,3.28
2022-10-17T02:44:14.851Z,3.38
2022-10-17T02:46:47.007Z,3.60
2022-10-17T02:49:18.687Z,3.25
2022-10-17T02:51:49.134Z,4.10
2022-10-17T02:54:20.711Z,3.45
2022-10-17T02:56:52.149Z,3.28
2022-10-17T02:59:22.382Z,3.50
2022-10-17T03:01:52.448Z,4.00
2022-10-17T03:04:21.393Z,3.78
2022-10-17T03:06:50.195Z,3.88
2022-10-17T03:09:19.925Z,3.50
2022-10-17T03:11:48.227Z,3.90
2022-10-17T03:14:16.583Z,3.80
2022-10-17T03:16:44.927Z,4.03
2022-10-17T03:19:14.616Z,3.45
2022-10-17T03:21:42.988Z,3.67
2022-10-17T03:24:11.485Z,3.38
2022-10-17T03:26:40.345Z,3.72
2022-10-17T03:29:09.312Z,3.38
2022-10-17T03:31:37.727Z,3.97
2022-10-17T03:34:07.945Z,3.63
2022-10-17T03:36:37.613Z,3.40
2022-10-17T03:39:06.254Z,3.70
2022-10-17T03:41:35.361Z,3.47
2022-10-17T03:44:03.687Z,3.75
2022-10-17T03:46:33.137Z,3.40
2022-10-17T03:49:02.301Z,3.60
2022-10-17T03:51:30.919Z,3.28
2022-10-17T03:54:05.905Z,3.22
2022-10-17T03:56:35.122Z,3.60
2022-10-17T03:59:06.543Z,3.10
2022-10-17T04:01:37.352Z,3.60
2022-10-17T04:04:05.806Z,3.13
2022-10-17T04:06:36.697Z,3.35
2022-10-17T04:09:07.738Z,3.15
2022-10-17T04:11:45.337Z,3.17
2022-10-17T04:14:14.368Z,3.20
2022-10-17T04:16:43.714Z,3.50
2022-10-17T04:19:17.189Z,3.17
2022-10-17T04:21:48.210Z,3.08
2022-10-17T04:24:18.572Z,3.80
2022-10-17T04:26:52.244Z,3.80
2022-10-17T04:29:22.486Z,3.50
2022-10-17T04:31:53.503Z,3.67
2022-10-17T04:34:27.549Z,4.43
2022-10-17T04:36:55.944Z,3.67
2022-10-17T04:39:25.795Z,4.03
2022-10-17T04:41:54.115Z,4.05
2022-10-17T04:44:22.753Z,4.32
2022-10-17T04:46:53.437Z,5.05
2022-10-17T04:49:21.780Z,4.13
2022-10-17T04:51:54.013Z,3.53
2022-10-17T04:54:31.530Z,3.88
2022-10-17T04:57:07.676Z,3.90
2022-10-17T04:59:36.293Z,3.65
2022-10-17T05:02:33.877Z,3.50
2022-10-17T05:05:04.009Z,3.65
2022-10-17T05:07:32.374Z,3.50
2022-10-17T05:10:05.506Z,3.35
2022-10-17T05:12:34.724Z,3.83
2022-10-17T05:15:03.061Z,4.05
2022-10-17T05:17:33.328Z,3.33
2022-10-17T05:20:01.657Z,3.70
2022-10-17T05:22:32.733Z,4.50
2022-10-17T05:25:01.671Z,3.92
2022-10-17T05:27:32.113Z,3.75
2022-10-17T05:30:00.421Z,3.20
2022-10-17T05:32:32.457Z,3.17
2022-10-17T05:35:01.239Z,3.50
2022-10-17T05:37:30.691Z,3.78
2022-10-17T05:39:59.340Z,3.85
2022-10-17T05:42:28.332Z,3.97
2022-10-17T05:44:59.369Z,4.07
2022-10-17T05:47:28.761Z,4.03
2022-10-17T05:49:57.328Z,4.60
2022-10-17T05:52:32.697Z,4.20
2022-10-17T05:55:12.278Z,3.80
2022-10-17T05:57:41.385Z,4.28
2022-10-17T06:00:17.052Z,3.80
2022-10-17T06:02:52.588Z,3.88
2022-10-17T06:05:21.991Z,3.75
2022-10-17T06:07:52.471Z,3.70
2022-10-17T06:10:21.763Z,3.75
2022-10-17T06:12:50.340Z,3.60
2022-10-17T06:15:20.152Z,3.55
2022-10-17T06:17:54.628Z,3.85
2022-10-17T06:20:22.925Z,4.40
2022-10-17T06:22:51.295Z,4.90
2022-10-17T06:25:29.069Z,3.95
2022-10-17T06:27:57.389Z,4.13
2022-10-17T06:30:27.876Z,4.13
2022-10-17T06:32:56.349Z,5.65
2022-10-17T06:35:24.955Z,4.50
2022-10-17T06:37:53.286Z,4.18
2022-10-17T06:40:22.923Z,4.70
2022-10-17T06:42:51.435Z,4.25
2022-10-17T06:48:53.520Z,4.28
2022-10-17T06:51:38.024Z,3.85
2022-10-17T06:54:09.831Z,4.28
2022-10-17T06:56:49.874Z,3.80
2022-10-17T06:59:31.105Z,3.92
2022-10-17T07:02:12.581Z,4.45
2022-10-17T07:04:40.883Z,5.53
2022-10-17T07:07:09.443Z,5.72
2022-10-17T07:09:39.433Z,5.47
2022-10-17T07:12:08.455Z,5.90
2022-10-17T07:14:37.168Z,5.70
2022-10-17T07:17:05.734Z,5.43
2022-10-17T07:19:36.070Z,6.13
2022-10-17T07:22:06.340Z,5.93
2022-10-17T07:24:35.786Z,6.57
2022-10-17T07:27:15.713Z,6.32
2022-10-17T07:29:44.070Z,7.15
2022-10-17T07:32:31.091Z,6.43
2022-10-17T07:35:02.098Z,6.90
2022-10-17T07:37:31.661Z,7.65
2022-10-17T07:40:01.217Z,7.55
2022-10-17T07:42:29.699Z,7.20
2022-10-17T07:44:58.161Z,7.82
2022-10-17T07:47:31.374Z,8.85
2022-10-17T07:50:02.278Z,8.40
2022-10-17T07:52:31.240Z,8.85
2022-10-17T07:54:59.897Z,8.10
2022-10-17T07:57:28.293Z,8.60
2022-10-17T07:59:56.686Z,10.32
2022-10-17T08:02:25.809Z,7.38
2022-10-17T08:04:54.520Z,7.75
2022-10-17T08:07:29.155Z,6.93
2022-10-17T08:09:57.995Z,6.88
2022-10-17T08:12:27.090Z,6.88
2022-10-17T08:14:55.615Z,6.57
2022-10-17T08:17:23.995Z,6.22
2022-10-17T08:19:52.399Z,5.97
2022-10-17T08:22:21.016Z,5.88
2022-10-17T08:24:50.745Z,5.82
2022-10-17T08:27:23.929Z,6.00
2022-10-17T08:29:53.459Z,4.85
2022-10-17T08:32:22.164Z,4.40
2022-10-17T08:34:50.763Z,5.18
2022-10-17T08:37:19.370Z,4.90
2022-10-17T08:39:47.715Z,5.10
2022-10-17T08:42:35.051Z,4.57
2022-10-17T08:45:10.117Z,4.60
2022-10-17T08:47:40.591Z,4.68
2022-10-17T08:50:13.080Z,5.22
2022-10-17T08:52:43.651Z,4.72
2022-10-17T08:55:16.682Z,6.00
2022-10-17T08:57:46.493Z,4.47
2022-10-17T09:00:17.148Z,3.50
2022-10-17T09:02:51.829Z,3.35
2022-10-17T09:05:26.811Z,4.43
2022-10-17T09:07:59.776Z,4.60
2022-10-17T09:10:30.962Z,3.35
2022-10-17T09:13:07.828Z,3.42
2022-10-17T09:15:44.635Z,3.50
2022-10-17T09:18:16.701Z,2.80
2022-10-17T09:20:51.486Z,3.78
2022-10-17T09:23:21.729Z,3.47
2022-10-17T09:25:52.338Z,3.22
2022-10-17T09:28:24.940Z,3.30
2022-10-17T09:30:57.631Z,3.30
2022-10-17T09:33:35.358Z,3.42
2022-10-17T09:36:06.391Z,3.22
2022-10-17T09:38:39.349Z,3.20
2022-10-17T09:41:25.663Z,3.17
2022-10-17T09:43:59.239Z,7.25
2022-10-17T09:46:28.794Z,4.53
2022-10-17T09:48:58.669Z,3.30
2022-10-17T09:51:27.632Z,3.45
2022-10-17T09:53:58.295Z,3.50
2022-10-17T09:56:26.661Z,3.13
2022-10-17T09:58:57.856Z,2.90
2022-10-17T10:01:28.957Z,3.42
2022-10-17T10:04:13.219Z,5.22
2022-10-17T10:06:41.999Z,3.28
2022-10-17T10:09:22.891Z,3.38
2022-10-17T10:11:52.264Z,4.97
2022-10-17T10:14:23.447Z,3.10
2022-10-17T10:16:54.582Z,3.20
2022-10-17T10:19:26.281Z,4.65
2022-10-17T10:21:57.039Z,2.85
2022-10-17T10:24:30.646Z,3.40
2022-10-17T10:27:00.396Z,2.85
2022-10-17T10:29:31.168Z,3.95
2022-10-17T10:32:09.051Z,3.30
2022-10-17T10:34:42.277Z,2.67
2022-10-17T10:37:18.128Z,3.67
2022-10-17T10:39:49.704Z,3.10
2022-10-17T10:42:26.338Z,3.38
2022-10-17T10:44:55.970Z,3.13
2022-10-17T10:47:27.410Z,3.30
2022-10-17T10:50:09.666Z,3.17
2022-10-17T10:52:42.362Z,3.00
2022-10-17T10:55:17.875Z,2.70
2022-10-17T10:57:47.424Z,3.33
2022-10-17T11:00:17.621Z,3.05
2022-10-17T11:02:52.890Z,3.10
2022-10-17T11:05:23.574Z,4.15
2022-10-17T11:07:53.153Z,3.25
2022-10-17T11:10:24.475Z,3.50
2022-10-17T11:12:54.632Z,2.88
2022-10-17T11:15:25.885Z,3.03
2022-10-17T11:17:58.607Z,2.85
2022-10-17T11:20:31.262Z,3.00
2022-10-17T11:23:04.152Z,2.58
2022-10-17T11:25:34.167Z,2.97
2022-10-17T11:28:05.224Z,3.40
2022-10-17T11:30:40.091Z,2.47
2022-10-17T11:33:11.563Z,3.60
2022-10-17T11:35:42.101Z,4.72
2022-10-17T11:38:16.652Z,3.05
2022-10-17T11:40:47.242Z,7.35
2022-10-17T11:43:19.400Z,3.95
2022-10-17T11:45:49.648Z,3.20
2022-10-17T11:48:23.065Z,3.00
2022-10-17T11:53:47.038Z,2.55
2022-10-17T11:56:16.863Z,2.85
2022-10-17T11:58:48.112Z,3.20
2022-10-17T12:01:19.143Z,3.00
2022-10-17T12:03:59.590Z,5.00
2022-10-17T12:06:36.304Z,3.83
2022-10-17T12:09:09.580Z,3.40
2022-10-17T12:11:43.275Z,3.15
2022-10-17T12:14:26.549Z,3.25
2022-10-17T12:16:55.301Z,2.28
2022-10-17T12:19:28.610Z,4.28
2022-10-17T12:21:58.509Z,5.80
2022-10-17T12:24:33.119Z,3.40
2022-10-17T12:27:16.385Z,3.42
2022-10-17T12:29:44.825Z,3.50
2022-10-17T12:32:13.661Z,2.75
2022-10-17T12:34:52.663Z,3.25
2022-10-17T12:37:35.913Z,2.95
2022-10-17T12:40:04.362Z,4.63
2022-10-17T12:42:34.224Z,2.80
2022-10-17T12:45:02.660Z,2.90
2022-10-17T12:47:39.028Z,3.10
2022-10-17T12:50:22.575Z,3.20
2022-10-17T12:53:00.373Z,3.08
2022-10-17T12:55:28.918Z,2.65
2022-10-17T12:57:58.682Z,2.90
2022-10-17T13:00:30.562Z,2.95
2022-10-17T13:03:05.345Z,3.17
2022-10-17T13:05:34.994Z,2.90
2022-10-17T13:08:06.543Z,3.40
2022-10-17T13:10:36.431Z,3.67
2022-10-17T13:13:07.426Z,4.50
2022-10-17T13:15:36.428Z,3.03
2022-10-17T13:18:05.231Z,4.32
2022-10-17T13:20:34.404Z,3.90
2022-10-17T13:23:03.761Z,3.05
2022-10-17T13:25:36.509Z,3.50
2022-10-17T13:28:08.991Z,2.97
2022-10-17T13:30:38.033Z,3.03
2022-10-17T13:33:17.959Z,2.63
2022-10-17T13:35:59.838Z,3.25
2022-10-17T13:38:32.128Z,3.40
2022-10-17T13:41:30.089Z,2.97
2022-10-17T13:43:51.330Z,2.83
2022-10-17T13:46:37.417Z,2.75
2022-10-17T13:49:12.040Z,3.63
2022-10-17T13:51:43.970Z,3.08
2022-10-17T13:54:19.380Z,2.50
2022-10-17T13:56:56.821Z,3.35
2022-10-17T13:59:26.662Z,3.47
2022-10-17T14:01:55.872Z,4.18
2022-10-17T14:04:24.354Z,3.10
2022-10-17T14:06:52.782Z,3.40
2022-10-17T14:09:23.494Z,3.10
2022-10-17T14:12:01.148Z,4.20
2022-10-17T14:14:30.429Z,3.08
2022-10-17T14:17:14.324Z,2.42
2022-10-17T14:19:46.021Z,3.33
2022-10-17T14:22:18.278Z,3.38
2022-10-17T14:24:46.687Z,3.35
2022-10-17T14:27:34.614Z,3.00
2022-10-17T14:30:04.034Z,3.03
2022-10-17T14:35:41.182Z,3.25
2022-10-17T14:37:59.680Z,3.40
2022-10-17T14:40:28.866Z,4.10
2022-10-17T14:42:59.496Z,3.35
2022-10-17T14:45:28.797Z,4.30
2022-10-17T14:47:58.309Z,3.90
2022-10-17T14:50:28.007Z,3.92
2022-10-17T14:53:03.539Z,3.70
2022-10-17T14:55:32.663Z,3.28
2022-10-17T14:58:02.719Z,3.08
2022-10-17T15:00:31.105Z,3.40
2022-10-17T15:02:59.511Z,3.08
2022-10-17T15:05:27.937Z,3.13
2022-10-17T15:07:56.298Z,3.00
2022-10-17T15:10:32.872Z,3.20
2022-10-17T15:15:52.294Z,3.13
2022-10-17T15:18:21.040Z,3.03
2022-10-17T15:20:55.341Z,3.15
2022-10-17T15:23:33.141Z,3.80
2022-10-17T15:26:01.826Z,2.97
2022-10-17T15:28:31.844Z,3.03
2022-10-17T15:31:00.226Z,3.28
2022-10-17T15:33:28.589Z,3.28
2022-10-17T15:38:30.268Z,3.28
2022-10-17T15:40:58.898Z,3.53
2022-10-17T15:43:27.243Z,3.17
2022-10-17T15:45:56.950Z,3.55
2022-10-17T15:48:28.615Z,3.05
2022-10-17T15:50:57.009Z,3.10
2022-10-17T15:53:25.641Z,3.88
2022-10-17T15:55:54.350Z,3.95
2022-10-17T15:58:22.758Z,3.30
2022-10-17T16:00:51.178Z,2.70
2022-10-17T16:05:51.390Z,3.45
2022-10-17T16:08:19.971Z,3.25
2022-10-17T16:10:48.394Z,3.85
2022-10-17T16:13:19.267Z,3.20
2022-10-17T16:15:48.113Z,3.42
2022-10-17T16:18:16.502Z,3.30
2022-10-17T16:20:46.233Z,3.15
2022-10-17T16:23:15.085Z,3.53
2022-10-17T16:25:43.468Z,3.28
2022-10-17T16:28:11.982Z,3.45
2022-10-17T16:30:44.824Z,3.92
2022-10-17T16:33:14.991Z,3.40
2022-10-17T16:35:43.437Z,3.40
2022-10-17T16:38:13.160Z,3.67
2022-10-17T16:40:41.536Z,3.63
2022-10-17T16:43:12.363Z,4.05
2022-10-17T16:45:40.861Z,4.00
2022-10-17T16:48:10.860Z,3.50
2022-10-17T16:50:40.391Z,4.35
2022-10-17T16:53:08.757Z,3.70
2022-10-17T16:55:38.474Z,3.42
2022-10-17T16:58:06.855Z,3.50
2022-10-17T17:00:35.260Z,3.80
2022-10-17T17:03:03.642Z,3.75
2022-10-17T17:05:32.021Z,3.97
2022-10-17T17:08:00.896Z,3.85
2022-10-17T17:10:29.286Z,4.47
2022-10-17T17:12:58.982Z,4.47
2022-10-17T17:15:27.421Z,4.50
2022-10-17T17:17:56.618Z,4.72
2022-10-17T17:20:25.585Z,4.65
2022-10-17T17:22:54.003Z,4.28
2022-10-17T17:25:22.979Z,4.68
2022-10-17T17:27:51.384Z,4.55
2022-10-17T17:30:21.150Z,4.53
2022-10-17T17:32:49.533Z,4.38
2022-10-17T17:35:18.022Z,4.38
2022-10-17T17:37:46.420Z,6.15
2022-10-17T17:40:17.172Z,5.38
2022-10-17T17:42:45.449Z,5.30
2022-10-17T17:45:14.009Z,5.20
2022-10-17T17:47:43.873Z,7.78
2022-10-17T17:50:12.187Z,7.97
2022-10-17T17:52:42.133Z,6.55
2022-10-17T17:55:11.055Z,6.05
2022-10-17T17:57:39.393Z,7.60
2022-10-17T18:00:08.293Z,7.95
2022-10-17T18:02:39.608Z,8.90
2022-10-17T18:05:11.992Z,6.05
2022-10-17T18:07:40.343Z,6.32
2022-10-17T18:10:09.461Z,6.57
2022-10-17T18:12:38.017Z,6.10
2022-10-17T18:15:06.942Z,7.28
2022-10-17T18:17:35.322Z,16.55
2022-10-17T18:20:03.722Z,40.80
2022-10-17T18:22:33.498Z,27.02
2022-10-17T18:25:01.870Z,16.30
2022-10-17T18:27:30.207Z,11.02
2022-10-17T18:29:58.494Z,9.98
2022-10-17T18:32:26.855Z,9.23
2022-10-17T18:34:55.253Z,9.43
2022-10-17T18:37:23.587Z,9.35
2022-10-17T18:39:55.257Z,8.50
2022-10-17T18:42:23.594Z,8.25
2022-10-17T18:44:52.379Z,8.02
2022-10-17T18:47:20.939Z,7.82
2022-10-17T18:49:49.298Z,8.18
2022-10-17T18:52:17.633Z,9.02
2022-10-17T18:54:45.959Z,8.93
2022-10-17T18:57:15.616Z,10.50
2022-10-17T18:59:43.889Z,9.98
2022-10-17T19:02:12.937Z,8.40
2022-10-17T19:04:41.487Z,8.80
2022-10-17T19:07:10.967Z,30.55
2022-10-17T19:09:39.277Z,21.58
2022-10-17T19:12:07.742Z,15.65
2022-10-17T19:14:39.419Z,12.95
2022-10-17T19:17:08.815Z,10.27
2022-10-17T19:19:37.236Z,17.90
2022-10-17T19:22:05.603Z,13.50
2022-10-17T19:24:34.550Z,9.15
2022-10-17T19:27:05.161Z,6.97
2022-10-17T19:29:33.853Z,6.35
2022-10-17T19:32:03.659Z,6.72
2022-10-17T19:34:32.046Z,7.90
2022-10-17T19:37:00.511Z,8.77
2022-10-17T19:39:29.378Z,9.05
2022-10-17T19:41:57.734Z,8.25
2022-10-17T19:44:26.445Z,7.95
2022-10-17T19:46:55.027Z,8.40
2022-10-17T19:49:24.875Z,7.80
2022-10-17T19:51:53.253Z,8.43
2022-10-17T19:54:21.612Z,8.27
2022-10-17T19:56:49.976Z,7.40
2022-10-17T19:59:18.818Z,7.47
2022-10-17T20:01:47.340Z,6.95
2022-10-17T20:04:15.911Z,6.32
2022-10-17T20:06:45.712Z,6.57
2022-10-17T20:09:16.980Z,6.80
2022-10-17T20:11:46.103Z,6.20
2022-10-17T20:14:14.468Z,6.47
2022-10-17T20:16:44.638Z,6.60
2022-10-17T20:19:13.931Z,6.25
2022-10-17T20:21:42.296Z,5.55
2022-10-17T20:24:13.549Z,5.45
2022-10-17T20:26:41.899Z,5.53
2022-10-17T20:29:12.753Z,6.07
2022-10-17T20:31:41.909Z,6.78
2022-10-17T20:34:12.255Z,5.85
2022-10-17T20:36:40.671Z,6.55
2022-10-17T20:39:09.106Z,6.30
2022-10-17T20:41:38.927Z,5.65
2022-10-17T20:44:07.764Z,5.65
2022-10-17T20:46:38.304Z,6.32
2022-10-17T20:49:10.644Z,6.30
2022-10-17T20:51:39.049Z,5.72
2022-10-17T20:54:07.524Z,6.28
2022-10-17T20:56:38.194Z,6.50
2022-10-17T20:59:10.993Z,7.07
2022-10-17T21:01:40.582Z,7.20
2022-10-17T21:04:40.292Z,6.75
2022-10-17T21:06:58.533Z,8.13
2022-10-17T21:09:27.991Z,7.07
2022-10-17T21:14:36.331Z,6.28
2022-10-17T21:17:06.143Z,7.00
2022-10-17T21:19:35.545Z,6.60
2022-10-17T21:22:04.003Z,7.13
2022-10-17T21:24:33.308Z,6.25
2022-10-17T21:27:02.508Z,6.53
2022-10-17T21:29:31.140Z,6.03
2022-10-17T21:32:01.113Z,6.70
2022-10-17T21:34:31.836Z,6.88
2022-10-17T21:37:02.019Z,6.35
2022-10-17T21:39:30.485Z,6.93
2022-10-17T21:41:58.977Z,6.45
2022-10-17T21:44:30.830Z,6.13
2022-10-17T21:47:00.828Z,6.63
2022-10-17T21:49:31.212Z,6.05
2022-10-17T21:52:03.937Z,6.32
2022-10-17T21:54:32.277Z,6.88
2022-10-17T21:57:00.589Z,6.43
2022-10-17T21:59:28.915Z,6.97
2022-10-17T22:01:57.332Z,6.25
2022-10-17T22:04:27.087Z,5.80
2022-10-17T22:06:56.375Z,5.90
2022-10-17T22:09:27.977Z,6.25
2022-10-17T22:11:57.283Z,5.85
2022-10-17T22:14:27.440Z,6.50
2022-10-17T22:16:56.235Z,6.30
2022-10-17T22:19:26.985Z,6.25
2022-10-17T22:21:56.769Z,6.72
2022-10-17T22:24:25.570Z,5.28
2022-10-17T22:26:53.914Z,5.70
2022-10-17T22:29:22.284Z,6.22
2022-10-17T22:31:50.744Z,6.07
2022-10-17T22:34:19.759Z,6.20
2022-10-17T22:36:48.811Z,6.47
2022-10-17T22:39:18.580Z,6.63
2022-10-17T22:41:47.695Z,5.78
2022-10-17T22:44:16.135Z,6.55
2022-10-17T22:46:44.435Z,7.13
2022-10-17T22:49:12.838Z,7.18
2022-10-17T22:51:41.256Z,6.88
2022-10-17T22:54:09.613Z,7.88
2022-10-17T22:56:39.507Z,7.57
2022-10-17T22:59:07.932Z,7.38
2022-10-17T23:01:36.457Z,7.57
2022-10-17T23:04:04.877Z,7.20
2022-10-17T23:06:33.237Z,6.78
2022-10-17T23:09:01.662Z,6.57
2022-10-17T23:11:30.078Z,7.50
2022-10-17T23:13:59.855Z,6.72
2022-10-17T23:16:28.136Z,7.13
2022-10-17T23:18:56.429Z,7.60
2022-10-17T23:21:24.758Z,6.82
2022-10-17T23:23:53.057Z,7.13
2022-10-17T23:26:22.145Z,7.25
2022-10-17T23:28:54.959Z,6.95
2022-10-17T23:31:24.656Z,6.95
2022-10-17T23:33:52.977Z,7.40
2022-10-17T23:36:22.091Z,7.65
2022-10-17T23:38:52.667Z,7.53
2022-10-17T23:41:23.392Z,8.60
2022-10-17T23:43:52.062Z,7.32
2022-10-17T23:46:20.369Z,7.10
2022-10-17T23:48:50.042Z,7.50
2022-10-17T23:51:18.474Z,7.05
2022-10-17T23:53:46.751Z,7.53
2022-10-17T23:56:15.092Z,7.43
2022-10-17T23:58:43.400Z,7.65
